sensor_id;sensor_type;location;lat;lon;timestamp;temperature;humidity
38514;DHT22;24282;48.400;10.808;2022-07-29T00:00:05;20.20;82.30
38514;DHT22;24282;48.400;10.808;2022-07-29T00:02:31;20.20;82.30
38514;DHT22;24282;48.400;10.808;2022-07-29T00:04:58;20.20;82.60
38514;DHT22;24282;48.400;10.808;2022-07-29T00:07:24;20.20;82.50
38514;DHT22;24282;48.400;10.808;2022-07-29T00:09:50;20.20;82.40
38514;DHT22;24282;48.400;10.808;2022-07-29T00:12:16;20.10;82.40
38514;DHT22;24282;48.400;10.808;2022-07-29T00:14:42;20.20;82.30
38514;DHT22;24282;48.400;10.808;2022-07-29T00:17:08;20.10;82.30
38514;DHT22;24282;48.400;10.808;2022-07-29T00:19:34;20.10;82.10
38514;DHT22;24282;48.400;10.808;2022-07-29T00:22:00;20.10;82.30
38514;DHT22;24282;48.400;10.808;2022-07-29T00:24:26;20.10;82.70
38514;DHT22;24282;48.400;10.808;2022-07-29T00:26:52;20.10;82.30
38514;DHT22;24282;48.400;10.808;2022-07-29T00:29:18;20.10;82.50
38514;DHT22;24282;48.400;10.808;2022-07-29T00:31:44;20.00;82.70
38514;DHT22;24282;48.400;10.808;2022-07-29T00:34:10;20.00;82.40
38514;DHT22;24282;48.400;10.808;2022-07-29T00:36:56;20.00;82.50
38514;DHT22;24282;48.400;10.808;2022-07-29T00:39:22;19.90;82.80
38514;DHT22;24282;48.400;10.808;2022-07-29T00:41:49;19.90;82.90
38514;DHT22;24282;48.400;10.808;2022-07-29T00:44:15;19.90;82.70
38514;DHT22;24282;48.400;10.808;2022-07-29T00:46:40;19.90;82.70
38514;DHT22;24282;48.400;10.808;2022-07-29T00:49:06;19.90;82.80
38514;DHT22;24282;48.400;10.808;2022-07-29T00:51:35;19.90;82.60
38514;DHT22;24282;48.400;10.808;2022-07-29T00:54:02;19.90;82.60
38514;DHT22;24282;48.400;10.808;2022-07-29T00:56:30;19.80;82.60
38514;DHT22;24282;48.400;10.808;2022-07-29T00:58:57;19.80;82.50
38514;DHT22;24282;48.400;10.808;2022-07-29T01:01:23;19.80;82.30
38514;DHT22;24282;48.400;10.808;2022-07-29T01:03:49;19.80;82.40
38514;DHT22;24282;48.400;10.808;2022-07-29T01:06:16;19.70;82.60
38514;DHT22;24282;48.400;10.808;2022-07-29T01:08:44;19.70;82.40
38514;DHT22;24282;48.400;10.808;2022-07-29T01:11:10;19.70;82.40
38514;DHT22;24282;48.400;10.808;2022-07-29T01:13:39;19.70;82.40
38514;DHT22;24282;48.400;10.808;2022-07-29T01:16:21;19.70;82.50
38514;DHT22;24282;48.400;10.808;2022-07-29T01:18:53;19.70;82.60
38514;DHT22;24282;48.400;10.808;2022-07-29T01:21:50;19.70;82.70
38514;DHT22;24282;48.400;10.808;2022-07-29T01:27:06;19.60;82.60
38514;DHT22;24282;48.400;10.808;2022-07-29T01:29:43;19.60;82.90
38514;DHT22;24282;48.400;10.808;2022-07-29T01:32:15;19.60;82.90
38514;DHT22;24282;48.400;10.808;2022-07-29T01:35:04;19.60;83.00
38514;DHT22;24282;48.400;10.808;2022-07-29T01:37:39;19.60;82.90
38514;DHT22;24282;48.400;10.808;2022-07-29T01:40:12;19.50;82.80
38514;DHT22;24282;48.400;10.808;2022-07-29T01:42:44;19.50;82.70
38514;DHT22;24282;48.400;10.808;2022-07-29T01:45:20;19.50;82.80
38514;DHT22;24282;48.400;10.808;2022-07-29T01:50:23;19.40;83.00
38514;DHT22;24282;48.400;10.808;2022-07-29T01:53:01;19.40;83.10
38514;DHT22;24282;48.400;10.808;2022-07-29T01:55:31;19.40;83.00
38514;DHT22;24282;48.400;10.808;2022-07-29T01:57:58;19.40;83.10
38514;DHT22;24282;48.400;10.808;2022-07-29T02:00:26;19.40;83.00
38514;DHT22;24282;48.400;10.808;2022-07-29T02:02:53;19.40;83.00
38514;DHT22;24282;48.400;10.808;2022-07-29T02:05:21;19.40;83.40
38514;DHT22;24282;48.400;10.808;2022-07-29T02:07:49;19.30;83.30
38514;DHT22;24282;48.400;10.808;2022-07-29T02:10:21;19.30;83.20
38514;DHT22;24282;48.400;10.808;2022-07-29T02:12:48;19.30;83.20
38514;DHT22;24282;48.400;10.808;2022-07-29T02:15:15;19.30;83.20
38514;DHT22;24282;48.400;10.808;2022-07-29T02:17:48;19.30;83.30
38514;DHT22;24282;48.400;10.808;2022-07-29T02:20:16;19.30;83.20
38514;DHT22;24282;48.400;10.808;2022-07-29T02:22:44;19.30;83.30
38514;DHT22;24282;48.400;10.808;2022-07-29T02:25:12;19.30;83.30
38514;DHT22;24282;48.400;10.808;2022-07-29T02:27:40;19.30;83.10
38514;DHT22;24282;48.400;10.808;2022-07-29T02:30:07;19.20;83.10
38514;DHT22;24282;48.400;10.808;2022-07-29T02:32:37;19.20;83.20
38514;DHT22;24282;48.400;10.808;2022-07-29T02:35:03;19.20;83.20
38514;DHT22;24282;48.400;10.808;2022-07-29T02:37:31;19.20;83.30
38514;DHT22;24282;48.400;10.808;2022-07-29T02:39:59;19.20;83.20
38514;DHT22;24282;48.400;10.808;2022-07-29T02:42:27;19.10;83.20
38514;DHT22;24282;48.400;10.808;2022-07-29T02:44:54;19.10;83.30
38514;DHT22;24282;48.400;10.808;2022-07-29T02:47:38;19.10;83.40
38514;DHT22;24282;48.400;10.808;2022-07-29T02:55:23;19.00;83.80
38514;DHT22;24282;48.400;10.808;2022-07-29T03:00:36;19.00;83.90
38514;DHT22;24282;48.400;10.808;2022-07-29T03:03:05;19.00;84.00
38514;DHT22;24282;48.400;10.808;2022-07-29T03:05:33;19.00;84.00
38514;DHT22;24282;48.400;10.808;2022-07-29T03:08:04;19.00;84.20
38514;DHT22;24282;48.400;10.808;2022-07-29T03:10:31;19.00;84.00
38514;DHT22;24282;48.400;10.808;2022-07-29T03:13:00;19.00;84.00
38514;DHT22;24282;48.400;10.808;2022-07-29T03:15:27;19.00;83.70
38514;DHT22;24282;48.400;10.808;2022-07-29T03:17:53;18.90;83.60
38514;DHT22;24282;48.400;10.808;2022-07-29T03:20:21;18.90;83.50
38514;DHT22;24282;48.400;10.808;2022-07-29T03:22:47;18.90;83.50
38514;DHT22;24282;48.400;10.808;2022-07-29T03:25:17;18.80;83.60
38514;DHT22;24282;48.400;10.808;2022-07-29T03:27:44;18.80;83.70
38514;DHT22;24282;48.400;10.808;2022-07-29T03:30:11;18.80;83.70
38514;DHT22;24282;48.400;10.808;2022-07-29T03:32:37;18.80;83.60
38514;DHT22;24282;48.400;10.808;2022-07-29T03:35:03;18.70;83.50
38514;DHT22;24282;48.400;10.808;2022-07-29T03:37:39;18.70;83.50
38514;DHT22;24282;48.400;10.808;2022-07-29T03:40:08;18.70;83.60
38514;DHT22;24282;48.400;10.808;2022-07-29T03:42:38;18.70;83.60
38514;DHT22;24282;48.400;10.808;2022-07-29T03:45:10;18.60;83.50
38514;DHT22;24282;48.400;10.808;2022-07-29T03:47:42;18.60;83.40
38514;DHT22;24282;48.400;10.808;2022-07-29T03:50:11;18.60;83.50
38514;DHT22;24282;48.400;10.808;2022-07-29T03:52:38;18.50;83.70
38514;DHT22;24282;48.400;10.808;2022-07-29T03:55:05;18.50;83.80
38514;DHT22;24282;48.400;10.808;2022-07-29T03:57:32;18.50;83.80
38514;DHT22;24282;48.400;10.808;2022-07-29T03:59:58;18.50;83.80
38514;DHT22;24282;48.400;10.808;2022-07-29T04:02:26;18.50;83.90
38514;DHT22;24282;48.400;10.808;2022-07-29T04:04:52;18.50;84.00
38514;DHT22;24282;48.400;10.808;2022-07-29T04:07:18;18.50;84.20
38514;DHT22;24282;48.400;10.808;2022-07-29T04:09:44;18.50;84.30
38514;DHT22;24282;48.400;10.808;2022-07-29T04:12:10;18.50;84.20
38514;DHT22;24282;48.400;10.808;2022-07-29T04:14:36;18.60;84.10
38514;DHT22;24282;48.400;10.808;2022-07-29T04:17:03;18.50;84.00
38514;DHT22;24282;48.400;10.808;2022-07-29T04:19:29;18.50;83.90
38514;DHT22;24282;48.400;10.808;2022-07-29T04:21:55;18.50;83.90
38514;DHT22;24282;48.400;10.808;2022-07-29T04:24:21;18.50;83.80
38514;DHT22;24282;48.400;10.808;2022-07-29T04:26:47;18.50;83.80
38514;DHT22;24282;48.400;10.808;2022-07-29T04:29:13;18.40;84.00
38514;DHT22;24282;48.400;10.808;2022-07-29T04:31:43;18.40;84.00
38514;DHT22;24282;48.400;10.808;2022-07-29T04:34:09;18.40;84.10
38514;DHT22;24282;48.400;10.808;2022-07-29T04:36:35;18.40;84.20
38514;DHT22;24282;48.400;10.808;2022-07-29T04:39:01;18.40;84.20
38514;DHT22;24282;48.400;10.808;2022-07-29T04:41:30;18.40;84.30
38514;DHT22;24282;48.400;10.808;2022-07-29T04:43:56;18.40;84.40
38514;DHT22;24282;48.400;10.808;2022-07-29T04:46:22;18.40;84.60
38514;DHT22;24282;48.400;10.808;2022-07-29T04:48:48;18.50;84.70
38514;DHT22;24282;48.400;10.808;2022-07-29T04:51:15;18.50;84.80
38514;DHT22;24282;48.400;10.808;2022-07-29T04:53:41;18.50;85.00
38514;DHT22;24282;48.400;10.808;2022-07-29T04:56:07;18.60;85.10
38514;DHT22;24282;48.400;10.808;2022-07-29T04:58:37;18.60;85.30
38514;DHT22;24282;48.400;10.808;2022-07-29T05:01:03;18.60;85.50
38514;DHT22;24282;48.400;10.808;2022-07-29T05:03:29;18.60;85.60
38514;DHT22;24282;48.400;10.808;2022-07-29T05:05:55;18.70;85.70
38514;DHT22;24282;48.400;10.808;2022-07-29T05:08:21;18.70;85.90
38514;DHT22;24282;48.400;10.808;2022-07-29T05:10:47;18.80;86.20
38514;DHT22;24282;48.400;10.808;2022-07-29T05:13:12;18.80;86.20
38514;DHT22;24282;48.400;10.808;2022-07-29T05:15:38;18.80;86.30
38514;DHT22;24282;48.400;10.808;2022-07-29T05:18:04;18.90;86.10
38514;DHT22;24282;48.400;10.808;2022-07-29T05:20:30;18.90;86.10
38514;DHT22;24282;48.400;10.808;2022-07-29T05:22:57;18.90;86.00
38514;DHT22;24282;48.400;10.808;2022-07-29T05:25:24;19.00;86.00
38514;DHT22;24282;48.400;10.808;2022-07-29T05:27:51;19.00;86.20
38514;DHT22;24282;48.400;10.808;2022-07-29T05:30:17;19.10;86.40
38514;DHT22;24282;48.400;10.808;2022-07-29T05:32:43;19.10;86.40
38514;DHT22;24282;48.400;10.808;2022-07-29T05:35:09;19.20;86.40
38514;DHT22;24282;48.400;10.808;2022-07-29T05:37:34;19.20;86.20
38514;DHT22;24282;48.400;10.808;2022-07-29T05:40:01;19.30;85.60
38514;DHT22;24282;48.400;10.808;2022-07-29T05:42:27;19.30;85.10
38514;DHT22;24282;48.400;10.808;2022-07-29T05:44:53;19.20;84.80
38514;DHT22;24282;48.400;10.808;2022-07-29T05:47:19;19.30;85.00
38514;DHT22;24282;48.400;10.808;2022-07-29T05:49:44;19.30;85.20
38514;DHT22;24282;48.400;10.808;2022-07-29T05:52:11;19.20;85.20
38514;DHT22;24282;48.400;10.808;2022-07-29T05:54:39;19.20;85.20
38514;DHT22;24282;48.400;10.808;2022-07-29T05:57:05;19.20;85.10
38514;DHT22;24282;48.400;10.808;2022-07-29T05:59:35;19.20;85.10
38514;DHT22;24282;48.400;10.808;2022-07-29T06:02:00;19.20;85.30
38514;DHT22;24282;48.400;10.808;2022-07-29T06:04:26;19.20;85.30
38514;DHT22;24282;48.400;10.808;2022-07-29T06:06:52;19.20;85.30
38514;DHT22;24282;48.400;10.808;2022-07-29T06:09:18;19.30;85.40
38514;DHT22;24282;48.400;10.808;2022-07-29T06:11:44;19.30;85.30
38514;DHT22;24282;48.400;10.808;2022-07-29T06:14:09;19.30;85.40
38514;DHT22;24282;48.400;10.808;2022-07-29T06:16:35;19.30;85.20
38514;DHT22;24282;48.400;10.808;2022-07-29T06:19:01;19.30;85.00
38514;DHT22;24282;48.400;10.808;2022-07-29T06:21:27;19.30;85.00
38514;DHT22;24282;48.400;10.808;2022-07-29T06:23:52;19.30;84.60
38514;DHT22;24282;48.400;10.808;2022-07-29T06:26:18;19.40;84.70
38514;DHT22;24282;48.400;10.808;2022-07-29T06:28:44;19.40;85.00
38514;DHT22;24282;48.400;10.808;2022-07-29T06:31:10;19.40;85.20
38514;DHT22;24282;48.400;10.808;2022-07-29T06:33:35;19.40;84.90
38514;DHT22;24282;48.400;10.808;2022-07-29T06:36:04;19.40;85.20
38514;DHT22;24282;48.400;10.808;2022-07-29T06:38:30;19.50;85.50
38514;DHT22;24282;48.400;10.808;2022-07-29T06:40:56;19.50;85.10
38514;DHT22;24282;48.400;10.808;2022-07-29T06:43:36;19.50;84.60
38514;DHT22;24282;48.400;10.808;2022-07-29T06:46:14;19.50;85.00
38514;DHT22;24282;48.400;10.808;2022-07-29T06:48:41;19.60;85.30
38514;DHT22;24282;48.400;10.808;2022-07-29T06:51:09;19.70;85.50
38514;DHT22;24282;48.400;10.808;2022-07-29T06:53:35;19.80;84.60
38514;DHT22;24282;48.400;10.808;2022-07-29T06:56:03;19.80;84.60
38514;DHT22;24282;48.400;10.808;2022-07-29T06:58:29;19.80;84.60
38514;DHT22;24282;48.400;10.808;2022-07-29T07:01:02;19.80;84.30
38514;DHT22;24282;48.400;10.808;2022-07-29T07:03:28;19.90;84.10
38514;DHT22;24282;48.400;10.808;2022-07-29T07:05:54;19.90;83.70
38514;DHT22;24282;48.400;10.808;2022-07-29T07:08:21;20.00;84.40
38514;DHT22;24282;48.400;10.808;2022-07-29T07:10:48;20.10;83.90
38514;DHT22;24282;48.400;10.808;2022-07-29T07:13:13;20.10;83.30
38514;DHT22;24282;48.400;10.808;2022-07-29T07:15:40;20.20;83.30
38514;DHT22;24282;48.400;10.808;2022-07-29T07:18:06;20.30;82.90
38514;DHT22;24282;48.400;10.808;2022-07-29T07:20:33;20.40;82.80
38514;DHT22;24282;48.400;10.808;2022-07-29T07:22:59;20.40;83.00
38514;DHT22;24282;48.400;10.808;2022-07-29T07:25:25;20.50;82.90
38514;DHT22;24282;48.400;10.808;2022-07-29T07:27:51;20.60;83.00
38514;DHT22;24282;48.400;10.808;2022-07-29T07:30:17;20.70;82.40
38514;DHT22;24282;48.400;10.808;2022-07-29T07:32:43;20.80;81.50
38514;DHT22;24282;48.400;10.808;2022-07-29T07:35:09;20.80;81.50
38514;DHT22;24282;48.400;10.808;2022-07-29T07:37:36;20.90;82.00
38514;DHT22;24282;48.400;10.808;2022-07-29T07:40:04;20.90;82.00
38514;DHT22;24282;48.400;10.808;2022-07-29T07:42:30;21.00;81.80
38514;DHT22;24282;48.400;10.808;2022-07-29T07:44:56;21.00;79.90
38514;DHT22;24282;48.400;10.808;2022-07-29T07:47:21;21.10;79.90
38514;DHT22;24282;48.400;10.808;2022-07-29T07:49:49;21.10;79.10
38514;DHT22;24282;48.400;10.808;2022-07-29T07:52:17;21.20;79.80
38514;DHT22;24282;48.400;10.808;2022-07-29T07:54:43;21.30;80.10
38514;DHT22;24282;48.400;10.808;2022-07-29T07:57:11;21.30;80.50
38514;DHT22;24282;48.400;10.808;2022-07-29T07:59:37;21.40;80.90
38514;DHT22;24282;48.400;10.808;2022-07-29T08:02:03;21.40;81.40
38514;DHT22;24282;48.400;10.808;2022-07-29T08:04:29;21.40;80.50
38514;DHT22;24282;48.400;10.808;2022-07-29T08:06:56;21.40;79.30
38514;DHT22;24282;48.400;10.808;2022-07-29T08:09:22;21.40;79.10
38514;DHT22;24282;48.400;10.808;2022-07-29T08:11:48;21.40;79.60
38514;DHT22;24282;48.400;10.808;2022-07-29T08:14:14;21.30;78.80
38514;DHT22;24282;48.400;10.808;2022-07-29T08:16:40;21.30;78.80
38514;DHT22;24282;48.400;10.808;2022-07-29T08:19:07;21.30;79.30
38514;DHT22;24282;48.400;10.808;2022-07-29T08:21:33;21.30;78.20
38514;DHT22;24282;48.400;10.808;2022-07-29T08:23:59;21.40;78.60
38514;DHT22;24282;48.400;10.808;2022-07-29T08:26:44;21.30;77.70
38514;DHT22;24282;48.400;10.808;2022-07-29T08:29:10;21.30;76.90
38514;DHT22;24282;48.400;10.808;2022-07-29T08:31:37;21.40;77.70
38514;DHT22;24282;48.400;10.808;2022-07-29T08:34:03;21.40;77.30
38514;DHT22;24282;48.400;10.808;2022-07-29T08:36:30;21.40;76.50
38514;DHT22;24282;48.400;10.808;2022-07-29T08:38:56;21.50;77.70
38514;DHT22;24282;48.400;10.808;2022-07-29T08:41:22;21.50;76.90
38514;DHT22;24282;48.400;10.808;2022-07-29T08:43:49;21.50;77.20
38514;DHT22;24282;48.400;10.808;2022-07-29T08:46:15;21.60;77.10
38514;DHT22;24282;48.400;10.808;2022-07-29T08:48:42;21.60;77.00
38514;DHT22;24282;48.400;10.808;2022-07-29T08:51:08;21.70;76.70
38514;DHT22;24282;48.400;10.808;2022-07-29T08:53:42;21.80;76.90
38514;DHT22;24282;48.400;10.808;2022-07-29T08:56:11;21.80;76.10
38514;DHT22;24282;48.400;10.808;2022-07-29T08:58:38;21.80;74.90
38514;DHT22;24282;48.400;10.808;2022-07-29T09:01:04;21.80;73.60
38514;DHT22;24282;48.400;10.808;2022-07-29T09:03:32;21.80;74.20
38514;DHT22;24282;48.400;10.808;2022-07-29T09:05:59;21.90;73.70
38514;DHT22;24282;48.400;10.808;2022-07-29T09:08:26;21.90;73.40
38514;DHT22;24282;48.400;10.808;2022-07-29T09:10:52;22.10;72.40
38514;DHT22;24282;48.400;10.808;2022-07-29T09:13:19;22.20;71.90
38514;DHT22;24282;48.400;10.808;2022-07-29T09:15:45;22.20;72.20
38514;DHT22;24282;48.400;10.808;2022-07-29T09:18:10;22.10;72.90
38514;DHT22;24282;48.400;10.808;2022-07-29T09:20:36;22.30;73.00
38514;DHT22;24282;48.400;10.808;2022-07-29T09:23:20;22.40;72.40
38514;DHT22;24282;48.400;10.808;2022-07-29T09:25:47;22.80;72.00
38514;DHT22;24282;48.400;10.808;2022-07-29T09:28:14;23.00;71.10
38514;DHT22;24282;48.400;10.808;2022-07-29T09:30:58;23.30;69.60
38514;DHT22;24282;48.400;10.808;2022-07-29T09:33:31;23.50;69.80
38514;DHT22;24282;48.400;10.808;2022-07-29T09:36:04;23.60;69.50
38514;DHT22;24282;48.400;10.808;2022-07-29T09:38:31;23.70;68.60
38514;DHT22;24282;48.400;10.808;2022-07-29T09:40:58;23.80;69.10
38514;DHT22;24282;48.400;10.808;2022-07-29T09:43:24;23.90;69.30
38514;DHT22;24282;48.400;10.808;2022-07-29T09:45:50;24.10;68.80
38514;DHT22;24282;48.400;10.808;2022-07-29T09:48:21;24.30;66.60
38514;DHT22;24282;48.400;10.808;2022-07-29T09:50:48;24.50;67.10
38514;DHT22;24282;48.400;10.808;2022-07-29T09:53:35;24.60;66.80
38514;DHT22;24282;48.400;10.808;2022-07-29T09:56:02;24.70;66.50
38514;DHT22;24282;48.400;10.808;2022-07-29T09:58:28;24.80;66.10
38514;DHT22;24282;48.400;10.808;2022-07-29T10:00:55;24.90;65.50
38514;DHT22;24282;48.400;10.808;2022-07-29T10:03:22;25.10;65.20
38514;DHT22;24282;48.400;10.808;2022-07-29T10:06:07;25.20;64.80
38514;DHT22;24282;48.400;10.808;2022-07-29T10:08:34;25.40;63.80
38514;DHT22;24282;48.400;10.808;2022-07-29T10:11:14;25.60;64.20
38514;DHT22;24282;48.400;10.808;2022-07-29T10:13:41;25.80;62.60
38514;DHT22;24282;48.400;10.808;2022-07-29T10:16:08;25.90;62.80
38514;DHT22;24282;48.400;10.808;2022-07-29T10:18:34;26.00;61.00
38514;DHT22;24282;48.400;10.808;2022-07-29T10:21:01;26.00;60.60
38514;DHT22;24282;48.400;10.808;2022-07-29T10:23:29;25.90;61.70
38514;DHT22;24282;48.400;10.808;2022-07-29T10:25:56;25.90;61.50
38514;DHT22;24282;48.400;10.808;2022-07-29T10:28:22;25.80;60.40
38514;DHT22;24282;48.400;10.808;2022-07-29T10:30:50;25.80;60.60
38514;DHT22;24282;48.400;10.808;2022-07-29T10:36:10;25.90;61.20
38514;DHT22;24282;48.400;10.808;2022-07-29T10:44:23;26.00;59.50
38514;DHT22;24282;48.400;10.808;2022-07-29T10:46:51;26.20;60.10
38514;DHT22;24282;48.400;10.808;2022-07-29T10:49:24;26.30;58.00
38514;DHT22;24282;48.400;10.808;2022-07-29T10:51:54;26.50;59.30
38514;DHT22;24282;48.400;10.808;2022-07-29T10:59:45;26.90;57.50
38514;DHT22;24282;48.400;10.808;2022-07-29T11:05:03;27.20;56.30
38514;DHT22;24282;48.400;10.808;2022-07-29T11:07:31;27.20;56.40
38514;DHT22;24282;48.400;10.808;2022-07-29T11:15:07;27.60;55.10
38514;DHT22;24282;48.400;10.808;2022-07-29T11:20:40;28.00;54.60
38514;DHT22;24282;48.400;10.808;2022-07-29T11:23:39;28.10;53.60
38514;DHT22;24282;48.400;10.808;2022-07-29T11:31:37;28.30;52.00
38514;DHT22;24282;48.400;10.808;2022-07-29T11:45:02;27.10;53.70
38514;DHT22;24282;48.400;10.808;2022-07-29T11:47:33;26.90;53.70
38514;DHT22;24282;48.400;10.808;2022-07-29T11:50:01;26.80;54.30
38514;DHT22;24282;48.400;10.808;2022-07-29T11:55:04;27.50;53.20
38514;DHT22;24282;48.400;10.808;2022-07-29T11:57:30;27.70;51.70
38514;DHT22;24282;48.400;10.808;2022-07-29T11:59:57;27.70;50.80
38514;DHT22;24282;48.400;10.808;2022-07-29T12:02:24;27.60;50.30
38514;DHT22;24282;48.400;10.808;2022-07-29T12:04:57;27.50;50.60
38514;DHT22;24282;48.400;10.808;2022-07-29T12:07:32;27.30;51.40
38514;DHT22;24282;48.400;10.808;2022-07-29T12:09:58;27.10;52.20
38514;DHT22;24282;48.400;10.808;2022-07-29T12:12:24;26.80;52.90
38514;DHT22;24282;48.400;10.808;2022-07-29T12:14:50;26.70;53.30
38514;DHT22;24282;48.400;10.808;2022-07-29T12:17:29;26.50;52.30
38514;DHT22;24282;48.400;10.808;2022-07-29T12:19:59;26.40;52.00
38514;DHT22;24282;48.400;10.808;2022-07-29T12:22:33;26.30;51.90
38514;DHT22;24282;48.400;10.808;2022-07-29T12:25:05;26.20;52.10
38514;DHT22;24282;48.400;10.808;2022-07-29T12:27:31;26.10;52.90
38514;DHT22;24282;48.400;10.808;2022-07-29T12:30:13;26.00;52.50
38514;DHT22;24282;48.400;10.808;2022-07-29T12:32:43;26.00;52.70
38514;DHT22;24282;48.400;10.808;2022-07-29T12:35:14;25.90;52.50
38514;DHT22;24282;48.400;10.808;2022-07-29T12:37:41;25.90;52.10
38514;DHT22;24282;48.400;10.808;2022-07-29T12:40:09;25.80;52.00
38514;DHT22;24282;48.400;10.808;2022-07-29T12:42:35;25.70;52.40
38514;DHT22;24282;48.400;10.808;2022-07-29T12:45:01;25.60;53.30
38514;DHT22;24282;48.400;10.808;2022-07-29T12:47:28;25.60;53.20
38514;DHT22;24282;48.400;10.808;2022-07-29T12:50:13;25.60;52.90
38514;DHT22;24282;48.400;10.808;2022-07-29T12:52:44;25.60;53.10
38514;DHT22;24282;48.400;10.808;2022-07-29T12:55:10;25.40;54.10
38514;DHT22;24282;48.400;10.808;2022-07-29T12:57:56;25.40;55.20
38514;DHT22;24282;48.400;10.808;2022-07-29T13:00:23;25.30;55.30
38514;DHT22;24282;48.400;10.808;2022-07-29T13:02:57;25.20;55.60
38514;DHT22;24282;48.400;10.808;2022-07-29T13:05:22;25.10;54.80
38514;DHT22;24282;48.400;10.808;2022-07-29T13:07:50;25.00;55.50
38514;DHT22;24282;48.400;10.808;2022-07-29T13:10:20;24.90;53.40
38514;DHT22;24282;48.400;10.808;2022-07-29T13:13:06;24.90;52.50
38514;DHT22;24282;48.400;10.808;2022-07-29T13:15:33;24.90;53.00
38514;DHT22;24282;48.400;10.808;2022-07-29T13:18:00;24.80;53.10
38514;DHT22;24282;48.400;10.808;2022-07-29T13:20:28;24.80;52.60
38514;DHT22;24282;48.400;10.808;2022-07-29T13:22:58;24.70;53.30
38514;DHT22;24282;48.400;10.808;2022-07-29T13:25:27;24.70;54.30
38514;DHT22;24282;48.400;10.808;2022-07-29T13:27:54;24.70;55.90
38514;DHT22;24282;48.400;10.808;2022-07-29T13:30:20;24.70;55.70
38514;DHT22;24282;48.400;10.808;2022-07-29T13:32:47;24.70;52.20
38514;DHT22;24282;48.400;10.808;2022-07-29T13:35:12;24.80;52.00
38514;DHT22;24282;48.400;10.808;2022-07-29T13:37:39;24.80;52.00
38514;DHT22;24282;48.400;10.808;2022-07-29T13:40:07;24.90;52.50
38514;DHT22;24282;48.400;10.808;2022-07-29T13:42:33;24.90;52.40
38514;DHT22;24282;48.400;10.808;2022-07-29T13:45:00;25.00;52.10
38514;DHT22;24282;48.400;10.808;2022-07-29T13:47:26;25.00;52.50
38514;DHT22;24282;48.400;10.808;2022-07-29T13:49:52;25.10;52.00
38514;DHT22;24282;48.400;10.808;2022-07-29T13:52:19;25.10;52.10
38514;DHT22;24282;48.400;10.808;2022-07-29T13:54:45;25.10;52.60
38514;DHT22;24282;48.400;10.808;2022-07-29T13:57:11;25.10;51.90
38514;DHT22;24282;48.400;10.808;2022-07-29T13:59:37;25.20;50.70
38514;DHT22;24282;48.400;10.808;2022-07-29T14:02:05;25.30;48.60
38514;DHT22;24282;48.400;10.808;2022-07-29T14:04:31;25.30;48.30
38514;DHT22;24282;48.400;10.808;2022-07-29T14:06:57;25.40;48.00
38514;DHT22;24282;48.400;10.808;2022-07-29T14:09:23;25.70;48.60
38514;DHT22;24282;48.400;10.808;2022-07-29T14:11:48;25.90;48.70
38514;DHT22;24282;48.400;10.808;2022-07-29T14:14:16;26.00;48.00
38514;DHT22;24282;48.400;10.808;2022-07-29T14:16:42;26.20;47.50
38514;DHT22;24282;48.400;10.808;2022-07-29T14:19:07;26.60;45.30
38514;DHT22;24282;48.400;10.808;2022-07-29T14:21:33;26.70;46.00
38514;DHT22;24282;48.400;10.808;2022-07-29T14:24:00;26.80;46.00
38514;DHT22;24282;48.400;10.808;2022-07-29T14:26:26;26.90;46.50
38514;DHT22;24282;48.400;10.808;2022-07-29T14:28:51;27.10;46.50
38514;DHT22;24282;48.400;10.808;2022-07-29T14:31:17;27.30;46.60
38514;DHT22;24282;48.400;10.808;2022-07-29T14:33:43;27.40;45.70
38514;DHT22;24282;48.400;10.808;2022-07-29T14:36:09;27.40;45.30
38514;DHT22;24282;48.400;10.808;2022-07-29T14:38:35;27.40;45.10
38514;DHT22;24282;48.400;10.808;2022-07-29T14:41:03;27.30;46.00
38514;DHT22;24282;48.400;10.808;2022-07-29T14:43:29;27.30;46.70
38514;DHT22;24282;48.400;10.808;2022-07-29T14:45:55;27.30;46.60
38514;DHT22;24282;48.400;10.808;2022-07-29T14:48:21;27.20;46.60
38514;DHT22;24282;48.400;10.808;2022-07-29T14:50:47;27.10;47.00
38514;DHT22;24282;48.400;10.808;2022-07-29T14:53:12;27.00;46.90
38514;DHT22;24282;48.400;10.808;2022-07-29T14:55:39;26.80;47.10
38514;DHT22;24282;48.400;10.808;2022-07-29T14:58:05;26.70;48.40
38514;DHT22;24282;48.400;10.808;2022-07-29T15:00:31;26.60;49.10
38514;DHT22;24282;48.400;10.808;2022-07-29T15:03:02;26.50;49.60
38514;DHT22;24282;48.400;10.808;2022-07-29T15:05:29;26.40;49.50
38514;DHT22;24282;48.400;10.808;2022-07-29T15:07:55;26.30;49.30
38514;DHT22;24282;48.400;10.808;2022-07-29T15:10:21;26.20;50.30
38514;DHT22;24282;48.400;10.808;2022-07-29T15:12:47;26.10;51.20
38514;DHT22;24282;48.400;10.808;2022-07-29T15:15:12;26.00;52.30
38514;DHT22;24282;48.400;10.808;2022-07-29T15:17:38;25.90;53.00
38514;DHT22;24282;48.400;10.808;2022-07-29T15:20:04;25.90;53.70
38514;DHT22;24282;48.400;10.808;2022-07-29T15:22:30;25.90;53.30
38514;DHT22;24282;48.400;10.808;2022-07-29T15:24:56;25.90;53.40
38514;DHT22;24282;48.400;10.808;2022-07-29T15:27:22;25.90;53.70
38514;DHT22;24282;48.400;10.808;2022-07-29T15:29:47;25.90;55.30
38514;DHT22;24282;48.400;10.808;2022-07-29T15:32:13;25.80;55.50
38514;DHT22;24282;48.400;10.808;2022-07-29T15:34:39;25.70;56.10
38514;DHT22;24282;48.400;10.808;2022-07-29T15:37:05;25.50;56.50
38514;DHT22;24282;48.400;10.808;2022-07-29T15:39:31;25.40;56.80
38514;DHT22;24282;48.400;10.808;2022-07-29T15:41:57;25.30;57.30
38514;DHT22;24282;48.400;10.808;2022-07-29T15:44:25;25.10;57.10
38514;DHT22;24282;48.400;10.808;2022-07-29T15:46:51;25.00;57.20
38514;DHT22;24282;48.400;10.808;2022-07-29T15:49:39;24.90;58.10
38514;DHT22;24282;48.400;10.808;2022-07-29T15:52:09;24.80;59.20
38514;DHT22;24282;48.400;10.808;2022-07-29T15:54:37;24.70;57.80
38514;DHT22;24282;48.400;10.808;2022-07-29T15:57:04;24.70;57.80
38514;DHT22;24282;48.400;10.808;2022-07-29T15:59:31;24.50;57.70
38514;DHT22;24282;48.400;10.808;2022-07-29T16:01:57;24.50;57.30
38514;DHT22;24282;48.400;10.808;2022-07-29T16:04:23;24.40;57.30
38514;DHT22;24282;48.400;10.808;2022-07-29T16:06:49;24.30;58.20
38514;DHT22;24282;48.400;10.808;2022-07-29T16:09:16;24.30;58.20
38514;DHT22;24282;48.400;10.808;2022-07-29T16:11:42;24.20;57.90
38514;DHT22;24282;48.400;10.808;2022-07-29T16:14:08;24.10;56.60
38514;DHT22;24282;48.400;10.808;2022-07-29T16:16:37;24.10;56.10